Williamsville, Missouri
Current Conditions -  °F | °C
As of 8:53 AM on Friday 19 Dec 2014 (Local Time) from KPOF Reporting Station
Overcast Overcast  
Wind Chill: 30°   Ceiling: 3400
Heat Index: 36°   Visibility: 7mi
Dew Point: 29°   Wind: 8mph
Humidity: 76%   Direction: 40°NE
Pressure: 30.31"   Gusts: NA
Location:  36.97°N, 90.55°W
Report Text: KPOF 191453Z AUTO 04007KT 7SM OVC034 02/M02 A3031 RMK AO2 SLP268 T00221017 53014
Loading
Personal Weather Stations






























Interactive Weather Map New forecast layout! Learn more

10-Day Weather Forecast

Advertisements
Track Severe Weather on mobile